createdAt,value
2023-03-31T00:01:06.368Z,16.36
2023-03-31T00:03:37.873Z,16.41
2023-03-31T00:06:06.716Z,16.38
2023-03-31T00:08:36.673Z,16.55
2023-03-31T00:11:04.257Z,16.55
2023-03-31T00:13:32.781Z,16.47
2023-03-31T00:16:04.747Z,16.32
2023-03-31T00:18:31.785Z,16.23
2023-03-31T00:21:24.098Z,16.21
2023-03-31T00:23:52.830Z,16.18
2023-03-31T00:26:29.375Z,16.07
2023-03-31T00:28:57.477Z,16.16
2023-03-31T00:31:24.396Z,16.24
2023-03-31T00:33:51.542Z,16.19
2023-03-31T00:36:20.710Z,16.27
2023-03-31T00:38:48.172Z,16.36
2023-03-31T00:41:15.292Z,16.34
2023-03-31T00:44:13.429Z,16.24
2023-03-31T00:47:07.263Z,16.28
2023-03-31T00:49:35.626Z,16.14
2023-03-31T00:52:12.829Z,15.88
2023-03-31T00:54:40.168Z,15.93
2023-03-31T00:57:07.123Z,15.96
2023-03-31T00:59:39.016Z,16.03
2023-03-31T01:02:05.798Z,16.15
2023-03-31T01:04:35.763Z,16.50
2023-03-31T01:07:11.774Z,16.41
2023-03-31T01:09:38.438Z,16.19
2023-03-31T01:12:08.100Z,16.26
2023-03-31T01:14:34.903Z,16.46
2023-03-31T01:17:02.222Z,16.69
2023-03-31T01:19:58.708Z,16.73
2023-03-31T01:22:37.253Z,16.81
2023-03-31T01:25:12.901Z,16.88
2023-03-31T01:27:46.322Z,16.87
2023-03-31T01:30:36.275Z,16.94
2023-03-31T01:33:22.587Z,16.91
2023-03-31T01:36:18.396Z,17.05
2023-03-31T01:38:56.667Z,16.78
2023-03-31T01:41:27.495Z,16.93
2023-03-31T01:44:16.825Z,17.05
2023-03-31T01:47:17.465Z,16.94
2023-03-31T01:49:57.454Z,17.11
2023-03-31T01:52:27.879Z,16.99
2023-03-31T01:55:03.780Z,17.21
2023-03-31T01:57:31.757Z,17.11
2023-03-31T02:00:08.846Z,17.05
2023-03-31T02:03:16.323Z,17.07
2023-03-31T02:05:46.455Z,16.98
2023-03-31T02:08:16.254Z,17.27
2023-03-31T02:10:43.862Z,17.34
2023-03-31T02:13:12.617Z,17.41
2023-03-31T02:15:45.716Z,17.31
2023-03-31T02:18:16.548Z,17.19
2023-03-31T02:20:45.560Z,17.13
2023-03-31T02:23:13.312Z,17.42
2023-03-31T02:25:45.692Z,17.07
2023-03-31T02:28:16.081Z,16.58
2023-03-31T02:30:51.268Z,17.03
2023-03-31T02:33:20.635Z,16.85
2023-03-31T02:35:48.742Z,16.86
2023-03-31T02:38:15.478Z,16.96
2023-03-31T02:40:43.490Z,17.15
2023-03-31T02:43:10.512Z,17.22
2023-03-31T02:45:46.707Z,17.27
2023-03-31T02:48:19.824Z,17.38
2023-03-31T02:51:13.608Z,17.51
2023-03-31T02:54:12.197Z,17.43
2023-03-31T02:56:56.035Z,17.57
2023-03-31T02:59:34.866Z,17.43
2023-03-31T03:02:20.121Z,17.66
2023-03-31T03:05:25.496Z,17.90
2023-03-31T03:08:35.252Z,18.02
2023-03-31T03:11:12.000Z,18.04
2023-03-31T03:13:45.180Z,17.83
2023-03-31T03:16:18.416Z,18.02
2023-03-31T03:18:59.705Z,18.08
2023-03-31T03:21:31.717Z,18.13
2023-03-31T03:23:59.074Z,18.11
2023-03-31T03:26:27.898Z,17.61
2023-03-31T03:28:54.952Z,16.89
2023-03-31T03:31:23.132Z,17.06
2023-03-31T03:33:50.584Z,17.00
2023-03-31T03:36:17.373Z,16.87
2023-03-31T03:38:44.020Z,17.50
2023-03-31T03:41:11.382Z,17.94
2023-03-31T03:43:38.028Z,18.04
2023-03-31T03:46:04.931Z,18.06
2023-03-31T03:48:37.149Z,17.83
2023-03-31T03:51:04.173Z,17.87
2023-03-31T03:53:30.823Z,17.58
2023-03-31T03:56:00.942Z,17.22
2023-03-31T03:58:27.641Z,17.27
2023-03-31T04:00:56.259Z,17.33
2023-03-31T04:03:24.016Z,17.08
2023-03-31T04:05:51.351Z,17.37
2023-03-31T04:08:18.348Z,17.66
2023-03-31T04:10:48.572Z,17.70
2023-03-31T04:13:17.939Z,17.63
2023-03-31T04:15:44.907Z,17.85
2023-03-31T04:18:22.079Z,17.69
2023-03-31T04:21:03.348Z,17.34
2023-03-31T04:23:42.075Z,16.75
2023-03-31T04:26:09.326Z,16.52
2023-03-31T04:28:36.888Z,16.60
2023-03-31T04:31:05.551Z,16.70
2023-03-31T04:33:38.721Z,16.31
2023-03-31T04:36:17.173Z,16.96
2023-03-31T04:38:46.137Z,16.88
2023-03-31T04:41:17.169Z,16.67
2023-03-31T04:43:45.621Z,17.02
2023-03-31T04:46:12.292Z,17.13
2023-03-31T04:48:40.032Z,17.03
2023-03-31T04:51:06.907Z,17.18
2023-03-31T04:53:37.174Z,16.93
2023-03-31T04:56:05.323Z,17.14
2023-03-31T04:58:32.084Z,17.41
2023-03-31T05:01:02.343Z,17.75
2023-03-31T05:03:30.551Z,17.54
2023-03-31T05:05:58.338Z,17.58
2023-03-31T05:08:26.415Z,17.77
2023-03-31T05:10:55.302Z,17.79
2023-03-31T05:13:23.175Z,17.95
2023-03-31T05:15:51.099Z,18.06
2023-03-31T05:18:20.297Z,17.93
2023-03-31T05:20:47.260Z,17.77
2023-03-31T05:23:13.967Z,17.52
2023-03-31T05:25:41.678Z,17.24
2023-03-31T05:28:09.446Z,17.46
2023-03-31T05:30:37.780Z,17.75
2023-03-31T05:33:04.518Z,17.91
2023-03-31T05:35:31.676Z,17.96
2023-03-31T05:37:58.433Z,18.06
2023-03-31T05:40:25.406Z,18.13
2023-03-31T05:42:52.278Z,18.23
2023-03-31T05:45:18.899Z,17.80
2023-03-31T05:47:46.673Z,18.00
2023-03-31T05:50:14.780Z,18.23
2023-03-31T05:52:42.178Z,18.29
2023-03-31T05:55:09.802Z,18.62
2023-03-31T05:57:38.108Z,18.63
2023-03-31T06:00:06.118Z,18.62
2023-03-31T06:02:34.253Z,18.60
2023-03-31T06:05:01.430Z,18.28
2023-03-31T06:07:29.265Z,17.84
2023-03-31T06:09:56.680Z,18.09
2023-03-31T06:12:23.903Z,17.80
2023-03-31T06:14:50.525Z,18.29
2023-03-31T06:17:17.649Z,18.43
2023-03-31T06:19:45.639Z,18.44
2023-03-31T06:22:12.664Z,18.72
2023-03-31T06:24:39.643Z,18.70
2023-03-31T06:27:06.779Z,18.86
2023-03-31T06:29:33.868Z,18.68
2023-03-31T06:32:00.723Z,18.70
2023-03-31T06:34:27.339Z,18.64
2023-03-31T06:36:54.013Z,18.33
2023-03-31T06:39:21.237Z,18.40
2023-03-31T06:41:48.059Z,18.40
2023-03-31T06:44:22.385Z,18.78
2023-03-31T06:46:48.957Z,19.11
2023-03-31T06:49:15.694Z,18.77
2023-03-31T06:51:44.035Z,18.90
2023-03-31T06:54:10.720Z,19.03
2023-03-31T06:56:38.852Z,19.11
2023-03-31T06:59:06.105Z,19.30
2023-03-31T07:01:36.766Z,18.83
2023-03-31T07:04:05.838Z,19.22
2023-03-31T07:06:32.599Z,19.32
2023-03-31T07:08:59.167Z,18.95
2023-03-31T07:11:28.073Z,19.49
2023-03-31T07:13:56.867Z,19.72
2023-03-31T07:16:23.687Z,19.81
2023-03-31T07:18:54.233Z,19.94
2023-03-31T07:21:21.046Z,19.74
2023-03-31T07:23:47.829Z,19.88
2023-03-31T07:26:17.341Z,20.16
2023-03-31T07:28:45.179Z,20.36
2023-03-31T07:31:21.277Z,20.37
2023-03-31T07:33:48.283Z,20.03
2023-03-31T07:36:15.027Z,20.10
2023-03-31T07:38:46.050Z,19.92
2023-03-31T07:41:13.149Z,19.98
2023-03-31T07:43:40.309Z,20.31
2023-03-31T07:46:07.873Z,19.88
2023-03-31T07:48:34.785Z,20.21
2023-03-31T07:51:01.335Z,20.17
2023-03-31T07:53:31.979Z,20.21
2023-03-31T07:55:58.703Z,20.68
2023-03-31T07:58:26.586Z,20.50
2023-03-31T08:00:53.339Z,20.37
2023-03-31T08:03:22.121Z,21.03
2023-03-31T08:05:52.814Z,21.02
2023-03-31T08:08:20.477Z,21.07
2023-03-31T08:10:47.843Z,21.53
2023-03-31T08:13:15.429Z,21.59
2023-03-31T08:15:42.270Z,22.11
2023-03-31T08:18:08.812Z,21.90
2023-03-31T08:20:38.682Z,22.20
2023-03-31T08:23:08.405Z,22.49
2023-03-31T08:25:37.713Z,22.33
2023-03-31T08:28:04.254Z,22.46
2023-03-31T08:30:31.380Z,22.54
2023-03-31T08:32:58.665Z,22.36
2023-03-31T08:35:25.975Z,22.73
2023-03-31T08:37:52.752Z,22.56
2023-03-31T08:40:21.541Z,22.75
2023-03-31T08:42:50.328Z,23.12
2023-03-31T08:45:30.418Z,22.91
2023-03-31T08:48:16.290Z,22.72
2023-03-31T08:50:47.589Z,22.92
2023-03-31T08:53:20.318Z,23.03
2023-03-31T08:55:51.763Z,23.52
2023-03-31T08:58:27.878Z,23.95
2023-03-31T09:01:16.559Z,23.91
2023-03-31T09:04:12.531Z,24.03
2023-03-31T09:06:42.909Z,24.12
2023-03-31T09:09:21.833Z,24.08
2023-03-31T09:11:54.360Z,23.58
2023-03-31T09:14:27.232Z,23.28
2023-03-31T09:17:17.762Z,23.32
2023-03-31T09:19:53.398Z,23.33
2023-03-31T09:22:23.050Z,22.59
2023-03-31T09:25:11.320Z,22.60
2023-03-31T09:27:47.418Z,22.58
2023-03-31T09:30:22.794Z,22.56
2023-03-31T09:32:52.982Z,22.86
2023-03-31T09:35:25.013Z,23.15
2023-03-31T09:37:52.062Z,23.19
2023-03-31T09:40:20.857Z,23.25
2023-03-31T09:42:48.970Z,23.16
2023-03-31T09:45:16.760Z,23.47
2023-03-31T09:47:46.791Z,23.56
2023-03-31T09:50:14.663Z,23.40
2023-03-31T09:52:50.806Z,23.47
2023-03-31T09:55:41.705Z,23.84
2023-03-31T09:58:12.883Z,23.29
2023-03-31T10:00:41.295Z,23.69
2023-03-31T10:03:12.490Z,23.64
2023-03-31T10:05:50.288Z,23.51
2023-03-31T10:08:26.633Z,23.54
2023-03-31T10:11:02.476Z,23.40
2023-03-31T10:14:12.721Z,22.94
2023-03-31T10:16:46.550Z,23.04
2023-03-31T10:19:27.125Z,22.89
2023-03-31T10:21:57.642Z,23.08
2023-03-31T10:24:25.862Z,23.05
2023-03-31T10:26:58.080Z,22.96
2023-03-31T10:29:32.217Z,22.81
2023-03-31T10:32:03.979Z,22.81
2023-03-31T10:34:30.706Z,22.95
2023-03-31T10:36:59.371Z,22.88
2023-03-31T10:39:29.405Z,22.84
2023-03-31T10:41:56.332Z,22.71
2023-03-31T10:44:34.178Z,22.97
2023-03-31T10:47:14.849Z,22.91
2023-03-31T10:49:42.870Z,23.13
2023-03-31T10:52:21.767Z,23.11
2023-03-31T10:54:51.099Z,23.41
2023-03-31T10:57:18.199Z,23.15
2023-03-31T10:59:52.088Z,23.20
2023-03-31T11:02:19.110Z,23.25
2023-03-31T11:04:58.261Z,23.43
2023-03-31T11:07:33.522Z,23.63
2023-03-31T11:10:34.277Z,23.42
2023-03-31T11:13:20.740Z,23.16
2023-03-31T11:16:00.382Z,23.19
2023-03-31T11:18:47.872Z,23.27
2023-03-31T11:21:19.666Z,23.17
2023-03-31T11:26:00.456Z,20.75
2023-03-31T11:28:33.299Z,22.79
2023-03-31T11:31:13.867Z,23.36
2023-03-31T11:34:04.798Z,23.06
2023-03-31T11:37:11.895Z,22.67
2023-03-31T11:40:18.794Z,23.07
2023-03-31T11:43:11.292Z,23.45
2023-03-31T11:45:49.988Z,22.91
2023-03-31T11:48:58.105Z,22.83
2023-03-31T11:51:32.420Z,22.95
2023-03-31T11:54:00.796Z,23.17
2023-03-31T11:56:35.978Z,22.88
2023-03-31T11:59:24.042Z,22.88
2023-03-31T12:02:26.870Z,23.13
2023-03-31T12:04:56.478Z,23.42
2023-03-31T12:07:41.125Z,23.62
2023-03-31T12:10:22.748Z,23.76
2023-03-31T12:13:16.783Z,23.51
2023-03-31T12:15:46.589Z,23.58
2023-03-31T12:18:23.045Z,23.10
2023-03-31T12:21:00.695Z,23.09
2023-03-31T12:23:31.320Z,23.23
2023-03-31T12:26:11.906Z,23.26
2023-03-31T12:28:40.786Z,23.36
2023-03-31T12:31:11.634Z,23.77
2023-03-31T12:33:42.031Z,23.96
2023-03-31T12:36:27.068Z,23.36
2023-03-31T12:38:58.210Z,23.90
2023-03-31T12:41:55.346Z,23.66
2023-03-31T12:44:49.618Z,23.73
2023-03-31T12:47:25.575Z,23.85
2023-03-31T12:50:31.747Z,24.07
2023-03-31T12:53:00.299Z,23.14
2023-03-31T12:55:45.536Z,23.51
2023-03-31T12:58:23.191Z,23.65
2023-03-31T13:01:17.166Z,23.48
2023-03-31T13:04:07.179Z,23.62
2023-03-31T13:06:41.847Z,22.63
2023-03-31T13:09:13.213Z,22.84
2023-03-31T13:11:43.228Z,22.77
2023-03-31T13:14:22.134Z,23.01
2023-03-31T13:17:11.177Z,23.27
2023-03-31T13:19:40.855Z,23.00
2023-03-31T13:22:33.998Z,23.24
2023-03-31T13:25:31.429Z,23.02
2023-03-31T13:28:15.068Z,23.34
2023-03-31T13:30:47.005Z,22.85
2023-03-31T13:33:21.163Z,22.76
2023-03-31T13:36:20.166Z,22.92
2023-03-31T13:39:04.393Z,23.01
2023-03-31T13:41:43.270Z,22.88
2023-03-31T13:44:51.576Z,23.05
2023-03-31T13:47:48.721Z,23.09
2023-03-31T13:50:32.232Z,23.11
2023-03-31T13:53:03.885Z,22.77
2023-03-31T13:55:39.421Z,22.72
2023-03-31T13:58:44.035Z,22.88
2023-03-31T14:01:18.650Z,22.83
2023-03-31T14:04:17.976Z,22.89
2023-03-31T14:06:52.704Z,23.16
2023-03-31T14:09:36.139Z,23.04
2023-03-31T14:12:30.311Z,23.34
2023-03-31T14:14:58.378Z,23.52
2023-03-31T14:17:45.025Z,23.39
2023-03-31T14:20:45.785Z,23.47
2023-03-31T14:23:26.155Z,23.17
2023-03-31T14:26:18.184Z,22.55
2023-03-31T14:29:12.812Z,22.47
2023-03-31T14:31:59.304Z,22.34
2023-03-31T14:34:27.413Z,21.95
2023-03-31T14:37:15.521Z,21.97
2023-03-31T14:39:46.998Z,22.59
2023-03-31T14:42:16.999Z,23.59
2023-03-31T14:44:47.167Z,22.92
2023-03-31T14:47:21.347Z,22.73
2023-03-31T14:49:59.882Z,22.65
2023-03-31T14:52:30.456Z,22.61
2023-03-31T14:55:00.791Z,22.57
2023-03-31T14:57:33.709Z,22.38
2023-03-31T15:00:06.188Z,22.16
2023-03-31T15:02:37.516Z,21.97
2023-03-31T15:05:09.878Z,22.08
2023-03-31T15:07:38.637Z,21.98
2023-03-31T15:10:07.769Z,21.92
2023-03-31T15:12:38.488Z,21.99
2023-03-31T15:15:08.770Z,21.76
2023-03-31T15:17:39.608Z,21.71
2023-03-31T15:20:36.424Z,21.95
2023-03-31T15:23:28.238Z,21.84
2023-03-31T15:25:57.971Z,21.61
2023-03-31T15:28:27.849Z,21.75
2023-03-31T15:31:07.258Z,22.02
2023-03-31T15:33:45.521Z,21.54
2023-03-31T15:36:13.838Z,21.57
2023-03-31T15:38:42.858Z,21.53
2023-03-31T15:41:15.631Z,21.46
2023-03-31T15:43:47.732Z,21.68
2023-03-31T15:46:20.970Z,21.59
2023-03-31T15:48:53.596Z,21.29
2023-03-31T15:51:30.372Z,21.32
2023-03-31T15:54:00.972Z,21.58
2023-03-31T15:56:36.442Z,21.86
2023-03-31T15:59:05.877Z,21.82
2023-03-31T16:01:43.282Z,22.18
2023-03-31T16:04:13.568Z,22.26
2023-03-31T16:06:46.591Z,21.55
2023-03-31T16:09:23.314Z,21.55
2023-03-31T16:11:56.636Z,22.23
2023-03-31T16:14:36.148Z,22.18
2023-03-31T16:17:10.652Z,22.13
2023-03-31T16:19:41.850Z,21.96
2023-03-31T16:22:13.971Z,21.72
2023-03-31T16:24:42.415Z,22.06
2023-03-31T16:27:10.350Z,21.74
2023-03-31T16:29:39.081Z,21.54
2023-03-31T16:32:08.448Z,21.29
2023-03-31T16:34:58.687Z,21.30
2023-03-31T16:37:27.028Z,21.30
2023-03-31T16:39:56.744Z,21.37
2023-03-31T16:42:24.958Z,21.30
2023-03-31T16:47:34.751Z,21.40
2023-03-31T16:50:07.710Z,21.35
2023-03-31T16:52:36.998Z,21.37
2023-03-31T16:55:05.515Z,21.20
2023-03-31T16:57:35.090Z,21.18
2023-03-31T17:00:03.923Z,21.78
2023-03-31T17:02:36.171Z,21.80
2023-03-31T17:05:12.504Z,21.06
2023-03-31T17:07:41.532Z,21.37
2023-03-31T17:10:12.986Z,21.05
2023-03-31T17:12:41.776Z,21.09
2023-03-31T17:15:11.141Z,21.52
2023-03-31T17:17:41.817Z,21.59
2023-03-31T17:20:10.957Z,21.41
2023-03-31T17:22:39.012Z,21.27
2023-03-31T17:25:09.560Z,21.36
2023-03-31T17:27:37.897Z,21.34
2023-03-31T17:30:10.078Z,21.38
2023-03-31T17:32:39.017Z,21.41
2023-03-31T17:35:08.030Z,21.35
2023-03-31T17:37:37.470Z,20.93
2023-03-31T17:40:07.283Z,20.64
2023-03-31T17:42:35.325Z,20.87
2023-03-31T17:45:05.215Z,21.00
2023-03-31T17:47:33.301Z,21.17
2023-03-31T17:50:01.630Z,21.42
2023-03-31T17:52:30.138Z,21.46
2023-03-31T17:55:04.314Z,20.95
2023-03-31T17:57:32.656Z,20.74
2023-03-31T18:00:10.821Z,20.98
2023-03-31T18:02:39.837Z,20.88
2023-03-31T18:05:09.876Z,20.82
2023-03-31T18:07:38.868Z,20.82
2023-03-31T18:10:07.692Z,20.72
2023-03-31T18:12:38.093Z,20.53
2023-03-31T18:15:07.263Z,20.84
2023-03-31T18:17:36.622Z,21.11
2023-03-31T18:20:18.409Z,21.04
2023-03-31T18:22:50.381Z,21.29
2023-03-31T18:25:20.840Z,20.99
2023-03-31T18:27:51.428Z,20.82
2023-03-31T18:30:20.350Z,20.94
2023-03-31T18:32:48.801Z,20.80
2023-03-31T18:35:20.194Z,20.71
2023-03-31T18:37:48.514Z,21.12
2023-03-31T18:40:20.050Z,21.47
2023-03-31T18:42:49.263Z,21.30
2023-03-31T18:45:17.964Z,21.36
2023-03-31T18:47:47.986Z,20.99
2023-03-31T18:50:16.324Z,21.03
2023-03-31T18:52:47.769Z,21.29
2023-03-31T18:55:18.952Z,21.39
2023-03-31T18:57:49.719Z,21.19
2023-03-31T19:00:20.837Z,21.12
2023-03-31T19:02:49.803Z,20.98
2023-03-31T19:05:18.203Z,20.85
2023-03-31T19:07:48.280Z,20.70
2023-03-31T19:10:17.769Z,20.86
2023-03-31T19:12:48.654Z,21.00
2023-03-31T19:15:19.389Z,20.84
2023-03-31T19:17:53.004Z,21.27
2023-03-31T19:20:22.583Z,21.55
2023-03-31T19:22:51.213Z,22.03
2023-03-31T19:25:20.798Z,21.88
2023-03-31T19:27:52.245Z,21.50
2023-03-31T19:30:22.359Z,21.68
2023-03-31T19:32:52.476Z,21.46
2023-03-31T19:35:22.981Z,21.28
2023-03-31T19:37:53.352Z,20.89
2023-03-31T19:40:24.601Z,21.10
2023-03-31T19:42:52.782Z,21.01
2023-03-31T19:45:21.850Z,21.01
2023-03-31T19:47:51.088Z,20.76
2023-03-31T19:50:19.537Z,21.05
2023-03-31T19:52:49.798Z,21.30
2023-03-31T19:55:18.101Z,21.70
2023-03-31T19:57:47.462Z,21.64
2023-03-31T20:00:18.756Z,21.55
2023-03-31T20:03:04.912Z,21.41
2023-03-31T20:05:34.724Z,21.87
2023-03-31T20:08:02.805Z,22.20
2023-03-31T20:10:36.315Z,21.90
2023-03-31T20:13:05.183Z,22.00
2023-03-31T20:15:37.421Z,22.20
2023-03-31T20:18:07.273Z,22.74
2023-03-31T20:20:36.215Z,22.65
2023-03-31T20:23:04.735Z,22.50
2023-03-31T20:25:33.050Z,22.39
2023-03-31T20:28:01.978Z,22.77
2023-03-31T20:30:30.834Z,22.91
2023-03-31T20:32:59.290Z,22.82
2023-03-31T20:35:28.483Z,22.95
2023-03-31T20:37:58.664Z,22.97
2023-03-31T20:40:26.835Z,22.75
2023-03-31T20:42:55.544Z,22.72
2023-03-31T20:45:24.402Z,22.77
2023-03-31T20:47:53.164Z,22.59
2023-03-31T20:50:23.057Z,22.59
2023-03-31T20:52:51.329Z,23.24
2023-03-31T20:55:19.559Z,23.06
2023-03-31T20:57:52.918Z,23.16
2023-03-31T21:00:22.985Z,22.97
2023-03-31T21:02:53.219Z,22.58
2023-03-31T21:05:23.688Z,22.84
2023-03-31T21:07:52.822Z,22.76
2023-03-31T21:10:22.947Z,22.68
2023-03-31T21:12:52.811Z,22.70
2023-03-31T21:15:20.811Z,22.95
2023-03-31T21:17:49.065Z,23.08
2023-03-31T21:20:17.394Z,22.53
2023-03-31T21:22:46.165Z,22.29
2023-03-31T21:25:14.343Z,22.30
2023-03-31T21:27:42.348Z,22.23
2023-03-31T21:30:11.868Z,22.22
2023-03-31T21:32:40.265Z,22.18
2023-03-31T21:35:09.480Z,22.15
2023-03-31T21:37:37.450Z,22.10
2023-03-31T21:40:07.172Z,22.38
2023-03-31T21:42:37.736Z,22.72
2023-03-31T21:45:06.768Z,22.72
2023-03-31T21:47:34.928Z,22.69
2023-03-31T21:50:04.688Z,22.46
2023-03-31T21:52:33.490Z,22.25
2023-03-31T21:55:01.851Z,22.23
2023-03-31T21:57:30.576Z,22.33
2023-03-31T21:59:59.071Z,22.36
2023-03-31T22:02:27.025Z,22.63
2023-03-31T22:04:55.494Z,22.66
2023-03-31T22:07:23.550Z,22.85
2023-03-31T22:09:51.915Z,22.68
2023-03-31T22:12:20.726Z,22.47
2023-03-31T22:14:49.473Z,22.17
2023-03-31T22:17:17.661Z,22.14
2023-03-31T22:19:45.836Z,22.14
2023-03-31T22:22:13.842Z,22.16
2023-03-31T22:24:42.937Z,22.06
2023-03-31T22:27:11.387Z,22.07
2023-03-31T22:29:40.785Z,22.05
2023-03-31T22:32:09.059Z,21.92
2023-03-31T22:34:37.030Z,21.87
2023-03-31T22:37:05.700Z,21.68
2023-03-31T22:39:34.064Z,21.67
2023-03-31T22:42:02.263Z,21.69
2023-03-31T22:44:31.563Z,21.64
2023-03-31T22:46:59.606Z,21.57
2023-03-31T22:49:27.811Z,21.57
2023-03-31T22:51:56.594Z,21.69
2023-03-31T22:54:24.635Z,21.35
2023-03-31T22:56:53.159Z,21.23
2023-03-31T22:59:21.273Z,21.31
2023-03-31T23:01:53.200Z,21.38
2023-03-31T23:04:22.419Z,21.44
2023-03-31T23:06:50.438Z,21.25
2023-03-31T23:09:19.574Z,21.10
2023-03-31T23:11:48.031Z,21.07
2023-03-31T23:14:18.079Z,21.00
2023-03-31T23:16:46.201Z,21.04
2023-03-31T23:19:14.601Z,21.01
2023-03-31T23:21:44.313Z,20.96
2023-03-31T23:24:12.428Z,21.03
2023-03-31T23:26:43.958Z,20.78
2023-03-31T23:29:12.966Z,20.94
2023-03-31T23:31:41.377Z,20.97
2023-03-31T23:34:11.531Z,21.02
2023-03-31T23:36:40.727Z,20.74
2023-03-31T23:39:10.785Z,20.65
2023-03-31T23:42:54.199Z,16.32
2023-03-31T23:45:22.896Z,17.78
2023-03-31T23:47:49.624Z,18.29
2023-03-31T23:50:16.813Z,18.61
2023-03-31T23:52:45.036Z,18.67
2023-03-31T23:55:12.589Z,18.59
2023-03-31T23:57:39.207Z,18.64
